aviador You're here:

YCBB Decoded Metar

in
Report Time2017-08-18 04:30:00
UTC Time2017-08-18 04:51:51
Flight Rules unknown UNKNOWN
Wind240° at 21 Gusting to 31 kt
W.Decomp.*RWY 29: 13.5 kt HW 16.1 kt LCW
RWY 19: 13.5 kt HW 16.1 kt RCW
W.Rank240° ranks 15
Current wind is above 240° avg. (9.0)
VisibilityN/A
Phenomena:N/A
Clouds:N/A
Expected CloudBase > 6,400 ft AGL from Temp-Dew spread
CeilingNone
Temp12°C
Dew Point-4°C (33% RH)
AAT2.0°C
QNH1015 hPa
Raw Report
SPECI YCBB 180430Z AUTO 24021G31KT //// // ////// 12/M04 Q1015=

Extra information for YCBB:More info

Social comments